Time;durP1;ratioP1;P1;durP2;ratioP2;P2;SDS_P1;SDS_P2;PMS_P1;PMS_P2;Temp;Humidity;BMP_temperature;BMP_pressure;BME280_temperature;BME280_humidity;BME280_pressure;Samples;Min_cycle;Max_cycle;Signal;HPM_P1;HPM_P2
2021/12/19 00:00:55;;;;;;;1.60;1.50;;;6.60;99.90;;;;;;4993154;28;20233;-65
2021/12/19 00:03:46;;;;;;;1.60;1.50;;;6.60;99.90;;;;;;4993002;28;20293;-65
2021/12/19 00:09:01;;;;;;;2.97;2.78;;;6.80;99.90;;;;;;4991952;28;20305;-65
2021/12/19 00:11:29;;;;;;;4.30;3.97;;;6.80;99.90;;;;;;4992360;28;20285;-65
2021/12/19 00:13:58;;;;;;;4.90;4.50;;;6.80;99.90;;;;;;4992898;28;20224;-65
2021/12/19 00:16:28;;;;;;;5.93;5.40;;;6.80;99.90;;;;;;4993281;28;20190;-65
2021/12/19 00:18:57;;;;;;;8.05;7.35;;;6.70;99.90;;;;;;4988991;28;20238;-65
2021/12/19 00:21:25;;;;;;;9.20;7.35;;;6.70;99.90;;;;;;4992833;28;20200;-65
2021/12/19 00:23:54;;;;;;;7.95;7.15;;;6.70;99.90;;;;;;4992398;28;20691;-65
2021/12/19 00:26:23;;;;;;;10.73;9.63;;;6.60;99.90;;;;;;4991360;28;20604;-65
2021/12/19 00:28:51;;;;;;;10.25;9.25;;;6.50;99.90;;;;;;4993118;28;20321;-65
2021/12/19 00:31:19;;;;;;;12.52;8.52;;;6.40;99.90;;;;;;4990767;28;20689;-65
2021/12/19 00:33:48;;;;;;;10.13;9.15;;;6.40;99.90;;;;;;4992453;28;20214;-65
2021/12/19 00:36:16;;;;;;;10.23;9.23;;;6.40;99.90;;;;;;4992984;28;20294;-65
2021/12/19 00:38:44;;;;;;;10.25;9.25;;;6.40;99.90;;;;;;4994764;28;20276;-65
2021/12/19 00:41:12;;;;;;;9.98;9.02;;;6.40;99.90;;;;;;4992499;28;20252;-65
2021/12/19 00:43:46;;;;;;;15.30;9.57;;;6.40;99.90;;;;;;4992041;28;20670;-65
2021/12/19 00:46:16;;;;;;;11.85;10.65;;;6.40;99.90;;;;;;4993429;28;20284;-65
2021/12/19 00:48:46;;;;;;;10.30;9.25;;;6.30;99.90;;;;;;4993986;28;20249;-65
2021/12/19 00:51:18;;;;;;;9.68;8.77;;;6.30;99.90;;;;;;4993699;28;20289;-65
2021/12/19 00:53:47;;;;;;;10.48;8.63;;;6.40;99.90;;;;;;4993275;28;20615;-65
2021/12/19 00:56:15;;;;;;;10.15;9.23;;;6.40;99.90;;;;;;4993832;28;20253;-66
2021/12/19 00:58:43;;;;;;;9.35;8.45;;;6.50;99.90;;;;;;4996524;28;20714;-66
2021/12/19 01:01:13;;;;;;;8.77;7.97;;;6.50;99.90;;;;;;5011971;28;20285;-66
2021/12/19 01:03:43;;;;;;;10.05;9.15;;;6.50;99.90;;;;;;5012833;28;20236;-65
2021/12/19 01:06:12;;;;;;;10.02;9.13;;;6.50;99.90;;;;;;5012807;28;20203;-66
2021/12/19 01:08:41;;;;;;;8.43;7.72;;;6.50;99.90;;;;;;5012873;28;20240;-65
2021/12/19 01:11:09;;;;;;;9.02;8.23;;;6.60;99.90;;;;;;5013127;28;20232;-66
2021/12/19 01:13:37;;;;;;;8.43;7.68;;;6.60;99.90;;;;;;5012525;28;20276;-66
2021/12/19 01:16:05;;;;;;;9.18;8.38;;;6.60;99.90;;;;;;5012807;28;20643;-66
2021/12/19 01:18:33;;;;;;;8.77;7.97;;;6.60;99.90;;;;;;5012779;28;20252;-66
2021/12/19 01:21:01;;;;;;;9.45;8.55;;;6.60;99.90;;;;;;5012943;28;20616;-66
2021/12/19 01:23:29;;;;;;;8.95;8.15;;;6.60;99.90;;;;;;5012680;28;20691;-66
2021/12/19 01:25:58;;;;;;;8.30;7.60;;;6.60;99.90;;;;;;5001051;28;20222;-66
2021/12/19 01:28:26;;;;;;;8.77;7.97;;;6.60;99.90;;;;;;4999811;28;20245;-65
2021/12/19 01:30:54;;;;;;;8.18;7.38;;;6.60;99.90;;;;;;5012428;28;20239;-66
2021/12/19 01:33:22;;;;;;;8.82;8.02;;;6.60;99.90;;;;;;5012328;28;20240;-66
2021/12/19 01:35:50;;;;;;;8.25;7.55;;;6.60;99.90;;;;;;5012208;28;20730;-65
2021/12/19 01:38:18;;;;;;;9.00;8.25;;;6.60;99.90;;;;;;5005929;28;20329;-65
2021/12/19 01:40:46;;;;;;;8.30;7.55;;;6.60;99.90;;;;;;4992994;28;20230;-65
2021/12/19 01:43:20;;;;;;;7.03;6.43;;;6.50;99.90;;;;;;4988073;28;20285;-65
2021/12/19 01:45:47;;;;;;;8.73;7.95;;;6.50;99.90;;;;;;4974375;28;20305;-65
2021/12/19 01:48:16;;;;;;;8.18;7.45;;;6.60;99.90;;;;;;4973366;28;20227;-65
2021/12/19 01:50:44;;;;;;;10.05;9.13;;;6.60;99.90;;;;;;4973432;28;20242;-65
2021/12/19 01:53:13;;;;;;;8.45;7.65;;;6.60;99.90;;;;;;4973064;28;20277;-65
2021/12/19 01:55:43;;;;;;;10.00;9.10;;;6.60;99.90;;;;;;4973027;28;20249;-64
2021/12/19 01:58:12;;;;;;;9.60;8.55;;;6.60;99.90;;;;;;4977820;28;20770;-66
2021/12/19 02:00:44;;;;;;;8.35;7.65;;;6.60;99.90;;;;;;4992379;28;20289;-66
2021/12/19 02:03:13;;;;;;;8.90;8.10;;;6.50;99.90;;;;;;4992325;28;20573;-65
2021/12/19 02:05:41;;;;;;;8.85;7.40;;;6.50;99.90;;;;;;4992147;28;20241;-66
2021/12/19 02:08:10;;;;;;;7.50;6.82;;;6.50;99.90;;;;;;4992100;28;20309;-66
2021/12/19 02:10:39;;;;;;;7.38;6.78;;;6.50;99.90;;;;;;4992415;28;20232;-66
2021/12/19 02:13:09;;;;;;;6.88;6.28;;;6.50;99.90;;;;;;4992108;28;20297;-67
2021/12/19 02:15:38;;;;;;;5.75;5.25;;;6.50;99.90;;;;;;4992213;28;20241;-66
2021/12/19 02:18:12;;;;;;;6.28;5.78;;;6.40;99.90;;;;;;4992262;28;20264;-66
2021/12/19 02:20:42;;;;;;;7.05;6.45;;;6.30;99.90;;;;;;4992315;28;20225;-66
2021/12/19 02:23:11;;;;;;;5.80;5.30;;;6.30;99.90;;;;;;4991830;28;20671;-66
2021/12/19 02:25:40;;;;;;;6.45;5.95;;;6.30;99.90;;;;;;4982924;28;20258;-65
2021/12/19 02:28:09;;;;;;;7.32;6.72;;;6.20;99.90;;;;;;4977175;28;20308;-67
2021/12/19 02:30:38;;;;;;;7.13;6.43;;;6.20;99.90;;;;;;4991825;28;20750;-65
2021/12/19 02:33:10;;;;;;;7.28;6.68;;;6.20;99.90;;;;;;4991913;28;20229;-65
2021/12/19 02:35:40;;;;;;;6.43;5.93;;;6.10;99.90;;;;;;4991575;28;20198;-66
2021/12/19 02:49:22;;;;;;;8.70;8.00;;;6.10;99.90;;;;;;4975844;28;20805;-61
2021/12/19 02:51:51;;;;;;;8.95;8.15;;;6.10;99.90;;;;;;4990413;28;20303;-62
2021/12/19 02:54:20;;;;;;;9.65;8.75;;;6.10;99.90;;;;;;4991406;28;20208;-62
2021/12/19 02:56:50;;;;;;;9.70;8.88;;;6.00;99.90;;;;;;4991768;28;20198;-62
2021/12/19 02:59:19;;;;;;;9.77;8.95;;;5.90;99.90;;;;;;4977852;28;20664;-61
2021/12/19 03:01:47;;;;;;;10.27;9.38;;;5.90;99.90;;;;;;4964958;28;20233;-61
2021/12/19 03:04:15;;;;;;;10.52;9.63;;;5.90;99.90;;;;;;4971945;28;20641;-60
2021/12/19 03:06:45;;;;;;;10.05;9.25;;;6.00;99.90;;;;;;4972337;28;20238;-60
2021/12/19 03:09:19;;;;;;;11.32;10.43;;;6.00;99.90;;;;;;4972453;28;20250;-61
2021/12/19 03:12:11;;;;;;;10.13;9.25;;;6.00;99.90;;;;;;4972258;28;20348;-60
2021/12/19 03:21:17;;;;;;;12.30;11.20;;;6.20;99.90;;;;;;4968378;28;20268;-61
2021/12/19 03:23:45;;;;;;;11.65;10.65;;;6.30;99.90;;;;;;4973151;28;20202;-62
2021/12/19 03:26:13;;;;;;;11.27;10.38;;;6.30;99.90;;;;;;4975497;28;20313;-62
2021/12/19 03:28:42;;;;;;;10.45;9.55;;;6.30;99.90;;;;;;4981956;28;20700;-61
2021/12/19 03:31:11;;;;;;;11.02;10.20;;;6.10;99.90;;;;;;4975911;28;20209;-62
2021/12/19 03:33:39;;;;;;;10.77;9.88;;;6.00;99.90;;;;;;4975457;28;20282;-61
2021/12/19 03:36:07;;;;;;;11.57;10.57;;;5.90;99.90;;;;;;4975500;28;20282;-62
2021/12/19 03:38:40;;;;;;;9.88;9.00;;;5.80;99.90;;;;;;4975403;28;20286;-61
2021/12/19 03:41:15;;;;;;;10.30;9.45;;;5.70;99.90;;;;;;4975632;28;20286;-60
2021/12/19 03:43:45;;;;;;;11.80;10.70;;;5.70;99.90;;;;;;4975613;28;20301;-61
2021/12/19 03:46:13;;;;;;;9.90;9.10;;;5.70;99.90;;;;;;4975156;28;20763;-61
2021/12/19 03:48:41;;;;;;;9.10;8.40;;;5.70;99.90;;;;;;4975239;28;20780;-61
2021/12/19 03:51:09;;;;;;;8.45;7.75;;;5.70;99.90;;;;;;4975583;28;20234;-61
2021/12/19 03:53:37;;;;;;;8.68;7.90;;;5.70;99.90;;;;;;4975047;28;20290;-62
2021/12/19 03:56:05;;;;;;;9.30;8.50;;;5.80;99.90;;;;;;4986643;28;20278;-61
2021/12/19 03:58:33;;;;;;;8.15;7.45;;;5.90;99.90;;;;;;4981760;28;20305;-62
2021/12/19 04:01:06;;;;;;;7.68;7.07;;;5.90;99.90;;;;;;4974579;28;20286;-62
2021/12/19 04:03:34;;;;;;;6.93;6.25;;;5.90;99.90;;;;;;4975634;28;20675;-62
2021/12/19 04:06:02;;;;;;;8.65;7.85;;;6.00;99.90;;;;;;4975479;28;20221;-62
2021/12/19 04:08:30;;;;;;;6.75;6.20;;;6.20;99.90;;;;;;4975155;28;20253;-62
2021/12/19 04:10:58;;;;;;;7.18;6.50;;;6.20;99.90;;;;;;4975262;28;20249;-62
2021/12/19 04:13:25;;;;;;;7.38;6.78;;;6.30;99.90;;;;;;4974935;28;20294;-62
2021/12/19 04:15:53;;;;;;;7.40;6.70;;;6.40;99.90;;;;;;4974922;28;20313;-62
2021/12/19 04:18:23;;;;;;;6.82;6.32;;;6.50;99.90;;;;;;4974664;28;20542;-62
2021/12/19 04:20:51;;;;;;;8.18;7.38;;;6.50;99.90;;;;;;4974933;28;20230;-62
2021/12/19 04:23:19;;;;;;;9.00;8.10;;;6.50;99.90;;;;;;4974704;28;20241;-62
2021/12/19 04:25:47;;;;;;;8.23;7.53;;;6.50;99.90;;;;;;4974571;28;20233;-62
2021/12/19 04:28:14;;;;;;;9.18;8.38;;;6.40;99.90;;;;;;4969271;28;20289;-62
2021/12/19 04:30:42;;;;;;;8.55;7.85;;;6.20;99.90;;;;;;4974359;28;20872;-62
2021/12/19 04:33:12;;;;;;;7.97;7.28;;;6.20;99.90;;;;;;4973929;28;20286;-62
2021/12/19 04:35:45;;;;;;;9.25;8.40;;;6.20;99.90;;;;;;4973488;28;20202;-62
2021/12/19 04:41:37;;;;;;;8.00;7.30;;;6.00;99.90;;;;;;4974491;28;20198;-62
2021/12/19 04:55:11;;;;;;;7.60;6.90;;;6.20;99.90;;;;;;4972309;28;20768;-61
2021/12/19 04:57:45;;;;;;;9.40;8.50;;;6.20;99.90;;;;;;4975002;28;20233;-61
2021/12/19 05:00:17;;;;;;;8.82;8.02;;;6.20;99.90;;;;;;4981373;28;20292;-61
2021/12/19 05:02:51;;;;;;;7.90;7.05;;;6.20;99.90;;;;;;4963901;28;20688;-61
2021/12/19 05:16:19;;;;;;;9.35;8.35;;;6.10;99.90;;;;;;4974304;28;20289;-62
2021/12/19 05:18:49;;;;;;;11.73;9.63;;;6.20;99.90;;;;;;4974610;28;20293;-62
2021/12/19 05:21:20;;;;;;;16.15;9.80;;;6.20;99.90;;;;;;4974951;28;20205;-61
2021/12/19 05:24:15;;;;;;;9.90;8.70;;;6.20;99.90;;;;;;4974036;28;20229;-61
2021/12/19 05:26:43;;;;;;;9.93;8.93;;;6.20;99.90;;;;;;4973862;28;20258;-61
2021/12/19 05:29:14;;;;;;;10.38;9.35;;;6.30;99.90;;;;;;4980281;28;20219;-62
2021/12/19 05:31:43;;;;;;;10.25;9.20;;;6.20;99.90;;;;;;4975308;28;20615;-61
2021/12/19 05:34:11;;;;;;;11.60;9.13;;;6.30;99.90;;;;;;4975716;28;20229;-61
2021/12/19 05:45:13;;;;;;;11.43;10.23;;;6.30;99.90;;;;;;4973690;28;20618;-62
2021/12/19 05:47:41;;;;;;;12.95;11.10;;;6.20;99.90;;;;;;4972795;28;20783;-61
2021/12/19 05:50:09;;;;;;;10.95;9.85;;;6.20;99.90;;;;;;4973147;28;20223;-61
2021/12/19 05:52:37;;;;;;;13.02;11.63;;;6.20;99.90;;;;;;4973168;28;20226;-61
2021/12/19 05:55:08;;;;;;;12.38;11.07;;;6.20;99.90;;;;;;4973458;28;20195;-62
2021/12/19 05:57:36;;;;;;;12.13;10.77;;;6.10;99.90;;;;;;4973121;28;20237;-61
2021/12/19 06:00:06;;;;;;;13.02;11.20;;;6.20;99.90;;;;;;4977888;28;20645;-63
2021/12/19 06:02:34;;;;;;;12.40;11.18;;;6.20;99.90;;;;;;4982522;28;20281;-62
2021/12/19 06:05:02;;;;;;;11.40;10.25;;;6.20;99.90;;;;;;4992316;28;20610;-63
2021/12/19 06:07:30;;;;;;;12.10;10.40;;;6.20;99.90;;;;;;4987511;28;20252;-62
2021/12/19 06:09:59;;;;;;;16.88;13.35;;;6.20;99.90;;;;;;4953475;29;20240;-62
2021/12/19 06:12:28;;;;;;;14.20;12.70;;;6.20;99.90;;;;;;4963344;28;20234;-63
2021/12/19 06:14:56;;;;;;;14.02;11.52;;;6.20;99.90;;;;;;4973335;28;20738;-63
2021/12/19 06:17:24;;;;;;;14.60;12.93;;;6.20;99.90;;;;;;4973355;28;20226;-62
2021/12/19 06:19:52;;;;;;;15.45;13.55;;;6.20;99.90;;;;;;4973167;28;20654;-62
2021/12/19 06:22:20;;;;;;;15.32;13.73;;;6.20;99.90;;;;;;4972840;28;20218;-63
2021/12/19 06:24:48;;;;;;;15.90;13.45;;;6.20;99.90;;;;;;4972862;28;20234;-63
2021/12/19 06:27:16;;;;;;;16.80;14.98;;;6.10;99.90;;;;;;4972975;28;20305;-63
2021/12/19 06:29:45;;;;;;;14.88;12.90;;;6.10;99.90;;;;;;4972830;28;20305;-63
2021/12/19 06:32:13;;;;;;;16.55;14.10;;;6.20;99.90;;;;;;4973237;28;20282;-63
2021/12/19 06:34:41;;;;;;;18.63;15.25;;;6.20;99.90;;;;;;4973127;28;20273;-63
2021/12/19 06:37:10;;;;;;;19.10;15.93;;;6.30;99.90;;;;;;4972815;28;20293;-63
2021/12/19 06:39:39;;;;;;;22.52;17.88;;;6.30;99.90;;;;;;4972661;28;20779;-62
2021/12/19 06:42:10;;;;;;;16.00;13.82;;;6.20;99.90;;;;;;4972685;28;20676;-63
2021/12/19 06:44:38;;;;;;;18.58;15.52;;;6.20;99.90;;;;;;4972613;28;20264;-63
2021/12/19 06:47:07;;;;;;;20.13;16.25;;;6.20;99.90;;;;;;4972300;28;20219;-63
2021/12/19 06:49:35;;;;;;;20.98;17.25;;;6.20;99.90;;;;;;4972951;28;20303;-62
2021/12/19 06:52:03;;;;;;;21.45;16.77;;;6.20;99.90;;;;;;4972862;28;20226;-62
2021/12/19 06:54:31;;;;;;;23.15;17.50;;;6.30;99.90;;;;;;4972607;28;20225;-62
2021/12/19 06:56:59;;;;;;;20.48;16.05;;;6.30;99.90;;;;;;4972550;28;20282;-63
2021/12/19 06:59:27;;;;;;;19.63;14.27;;;6.40;99.90;;;;;;4974434;28;20223;-62
2021/12/19 07:01:55;;;;;;;21.75;16.60;;;6.40;99.90;;;;;;4976311;28;20237;-63
2021/12/19 07:04:24;;;;;;;18.65;15.63;;;6.40;99.90;;;;;;4975823;28;20410;-63
2021/12/19 07:06:52;;;;;;;20.08;15.95;;;6.40;99.90;;;;;;4975747;28;20203;-63
2021/12/19 07:09:20;;;;;;;17.73;14.45;;;6.40;99.90;;;;;;4976393;28;20218;-63
2021/12/19 07:11:48;;;;;;;20.02;15.50;;;6.50;99.90;;;;;;4976930;28;20229;-63
2021/12/19 07:14:16;;;;;;;20.40;16.38;;;6.60;99.90;;;;;;4986670;28;20198;-63
2021/12/19 07:16:44;;;;;;;22.17;15.40;;;6.50;99.90;;;;;;4975705;28;20290;-61
2021/12/19 07:19:12;;;;;;;17.33;15.23;;;6.60;99.90;;;;;;4976021;28;20302;-62
2021/12/19 07:21:41;;;;;;;20.08;14.70;;;6.60;99.90;;;;;;4975893;28;20289;-62
2021/12/19 07:24:09;;;;;;;16.73;14.32;;;6.60;99.90;;;;;;4975889;28;20627;-62
2021/12/19 07:26:37;;;;;;;18.70;15.98;;;6.70;99.90;;;;;;4975405;28;20285;-62
2021/12/19 07:29:05;;;;;;;19.30;14.55;;;6.70;99.90;;;;;;4975575;28;20253;-63
2021/12/19 07:31:36;;;;;;;22.63;15.15;;;6.70;99.90;;;;;;4975742;28;20207;-63
2021/12/19 07:34:05;;;;;;;19.20;16.25;;;6.80;99.90;;;;;;4975899;28;20297;-63
2021/12/19 07:36:40;;;;;;;17.90;14.52;;;6.70;99.90;;;;;;4974030;28;20285;-63
2021/12/19 07:39:21;;;;;;;19.25;14.75;;;6.70;99.90;;;;;;4974308;28;20313;-63
2021/12/19 07:41:48;;;;;;;18.30;14.82;;;6.60;99.90;;;;;;4956358;29;20234;-63
2021/12/19 07:44:16;;;;;;;19.50;14.68;;;6.60;99.90;;;;;;4966880;28;20293;-62
2021/12/19 07:46:45;;;;;;;23.42;14.88;;;6.60;99.90;;;;;;4975659;28;20237;-61
2021/12/19 07:49:13;;;;;;;18.65;14.80;;;6.50;99.90;;;;;;4975700;28;20218;-62
2021/12/19 07:51:41;;;;;;;16.13;13.15;;;6.50;99.90;;;;;;4973791;28;20237;-62
2021/12/19 07:54:10;;;;;;;21.45;15.43;;;6.50;99.90;;;;;;4973942;28;20237;-62
2021/12/19 07:56:39;;;;;;;17.98;13.05;;;6.60;99.90;;;;;;4969499;28;20639;-63
2021/12/19 07:59:07;;;;;;;16.55;13.20;;;6.60;99.90;;;;;;4970315;28;20218;-63
2021/12/19 08:01:36;;;;;;;18.60;14.05;;;6.60;99.90;;;;;;4973657;28;20706;-64
2021/12/19 08:04:04;;;;;;;18.27;13.68;;;6.70;99.90;;;;;;4973074;28;20290;-63
2021/12/19 08:06:32;;;;;;;17.65;14.63;;;6.60;99.90;;;;;;4983945;28;20236;-63
2021/12/19 08:09:08;;;;;;;18.42;13.88;;;6.70;99.90;;;;;;4974833;28;20692;-63
2021/12/19 08:11:41;;;;;;;18.15;12.90;;;6.70;99.90;;;;;;4986061;28;20226;-63
2021/12/19 08:14:11;;;;;;;17.75;14.02;;;6.70;99.90;;;;;;4975125;28;20231;-64
2021/12/19 08:16:39;;;;;;;16.90;12.57;;;6.70;99.90;;;;;;4974758;28;20210;-63
2021/12/19 08:19:08;;;;;;;32.28;16.92;;;6.70;99.90;;;;;;4978382;28;20297;-64
2021/12/19 08:21:36;;;;;;;21.67;14.68;;;7.90;99.90;;;;;;4980482;28;20226;-64
2021/12/19 08:24:10;;;;;;;18.30;14.13;;;8.10;99.90;;;;;;4975396;28;20285;-64
2021/12/19 08:26:40;;;;;;;21.10;14.00;;;8.00;99.90;;;;;;4955727;29;20278;-65
2021/12/19 08:29:11;;;;;;;23.63;14.52;;;8.90;99.90;;;;;;4967052;28;20232;-65
2021/12/19 08:31:39;;;;;;;17.60;12.70;;;9.30;99.90;;;;;;4974525;28;20202;-64
2021/12/19 08:34:07;;;;;;;16.73;12.10;;;8.70;99.90;;;;;;4974507;28;20724;-64
2021/12/19 08:36:35;;;;;;;21.38;12.80;;;9.40;99.90;;;;;;4974875;28;20203;-64
2021/12/19 08:39:04;;;;;;;14.05;12.07;;;9.80;99.90;;;;;;4967607;28;20258;-64
2021/12/19 08:41:32;;;;;;;18.20;12.20;;;10.10;99.90;;;;;;4949503;28;20204;-64
2021/12/19 08:44:01;;;;;;;20.65;12.45;;;9.80;99.90;;;;;;4948945;28;20220;-63
2021/12/19 08:46:32;;;;;;;12.73;11.38;;;10.50;99.90;;;;;;4947970;28;20222;-63
2021/12/19 08:49:00;;;;;;;16.58;14.80;;;10.80;99.90;;;;;;4951645;28;20322;-64
2021/12/19 08:51:28;;;;;;;19.05;13.75;;;10.70;99.90;;;;;;4970186;23;20217;-71
2021/12/19 08:53:56;;;;;;;12.23;10.30;;;10.80;99.90;;;;;;4985983;28;20289;-71
2021/12/19 08:56:24;;;;;;;13.52;11.80;;;10.50;99.90;;;;;;4988066;28;20263;-69
2021/12/19 08:58:52;;;;;;;13.93;11.95;;;10.40;99.90;;;;;;4988935;28;20284;-70
2021/12/19 09:01:21;;;;;;;15.90;12.80;;;9.90;99.90;;;;;;4991960;28;20257;-70
2021/12/19 09:03:49;;;;;;;13.80;11.75;;;10.00;99.90;;;;;;4988402;28;20241;-71
2021/12/19 09:06:17;;;;;;;13.27;11.88;;;10.20;99.90;;;;;;4996031;28;20206;-70
2021/12/19 09:08:46;;;;;;;15.13;11.88;;;10.00;99.90;;;;;;4968818;28;20257;-72
2021/12/19 09:11:13;;;;;;;12.57;11.32;;;10.30;99.90;;;;;;4969009;28;20294;-70
2021/12/19 09:13:41;;;;;;;14.18;12.25;;;10.20;99.90;;;;;;4978907;28;20276;-68
2021/12/19 09:16:09;;;;;;;14.68;13.18;;;9.70;99.90;;;;;;4983563;28;20603;-71
2021/12/19 09:18:39;;;;;;;12.77;11.48;;;11.00;99.90;;;;;;5001589;28;20718;-70
2021/12/19 09:21:07;;;;;;;13.45;12.00;;;11.40;99.90;;;;;;4987513;28;20296;-75
2021/12/19 09:23:35;;;;;;;15.35;13.05;;;11.20;99.90;;;;;;4990963;28;20223;-73
2021/12/19 09:26:05;;;;;;;14.68;12.43;;;10.40;99.90;;;;;;4997018;28;20198;-72
2021/12/19 09:28:33;;;;;;;14.48;12.90;;;9.70;99.90;;;;;;5001311;28;20297;-73
2021/12/19 09:31:01;;;;;;;13.95;12.55;;;9.10;99.90;;;;;;4999319;28;20284;-73
2021/12/19 09:33:29;;;;;;;17.10;14.07;;;8.80;99.90;;;;;;5004749;28;20327;-72
2021/12/19 09:35:59;;;;;;;14.15;12.65;;;8.50;99.90;;;;;;4997958;28;20822;-70
2021/12/19 09:38:27;;;;;;;17.50;14.82;;;8.20;99.90;;;;;;5000198;28;20202;-72
2021/12/19 09:41:00;;;;;;;16.70;14.93;;;7.90;99.90;;;;;;4988025;28;20222;-73
2021/12/19 09:43:44;;;;;;;17.08;14.73;;;7.80;99.90;;;;;;4987064;28;20255;-74
2021/12/19 09:46:16;;;;;;;17.98;14.75;;;7.80;99.90;;;;;;4995888;28;20229;-73
2021/12/19 09:48:46;;;;;;;19.15;15.73;;;7.70;99.90;;;;;;5007250;28;20252;-73
2021/12/19 09:51:18;;;;;;;17.42;14.50;;;7.60;99.90;;;;;;4997159;28;20657;-73
2021/12/19 09:53:46;;;;;;;17.02;13.70;;;7.60;99.90;;;;;;4992671;28;20201;-75
2021/12/19 09:56:14;;;;;;;19.23;16.77;;;7.50;99.90;;;;;;4996064;28;20671;-73
2021/12/19 09:58:42;;;;;;;17.63;14.85;;;7.50;99.90;;;;;;5002191;28;20645;-73
2021/12/19 10:01:13;;;;;;;17.35;14.00;;;7.60;99.90;;;;;;4999150;28;20239;-73
2021/12/19 10:03:42;;;;;;;16.95;15.02;;;7.50;99.90;;;;;;4993251;28;20194;-72
2021/12/19 10:06:16;;;;;;;22.88;18.05;;;7.50;99.90;;;;;;4995441;28;20256;-75
2021/12/19 10:08:46;;;;;;;19.75;15.98;;;7.50;99.90;;;;;;4982571;28;20202;-73
2021/12/19 10:11:34;;;;;;;19.52;15.80;;;7.50;99.90;;;;;;4988259;28;20292;-71
2021/12/19 10:14:03;;;;;;;18.80;15.20;;;7.40;99.90;;;;;;4994871;28;20236;-73
2021/12/19 10:16:31;;;;;;;23.48;19.05;;;7.40;99.90;;;;;;4997975;28;20202;-73
2021/12/19 10:19:01;;;;;;;25.60;21.90;;;7.40;99.90;;;;;;5007416;28;20572;-72
2021/12/19 10:21:36;;;;;;;21.27;17.75;;;7.50;99.90;;;;;;5007101;28;20733;-73
2021/12/19 10:24:06;;;;;;;16.98;15.13;;;7.50;99.90;;;;;;4997512;28;20208;-73
2021/12/19 10:26:42;;;;;;;20.50;14.90;;;7.60;99.90;;;;;;4995867;28;20871;-71
2021/12/19 10:29:10;;;;;;;20.85;18.40;;;7.50;99.90;;;;;;4994416;28;20308;-73
2021/12/19 10:31:38;;;;;;;17.35;15.45;;;7.60;99.90;;;;;;4991973;28;20230;-71
2021/12/19 10:34:20;;;;;;;24.90;21.17;;;7.70;99.90;;;;;;4993547;28;20688;-73
2021/12/19 10:36:50;;;;;;;15.52;13.73;;;7.90;99.90;;;;;;4985789;28;20225;-73
2021/12/19 10:39:24;;;;;;;16.77;14.85;;;7.90;99.90;;;;;;4987298;28;20205;-71
2021/12/19 10:42:00;;;;;;;15.95;14.15;;;8.00;99.90;;;;;;4988873;28;20277;-72
2021/12/19 10:47:26;;;;;;;17.55;14.75;;;8.10;99.90;;;;;;4996539;28;20945;-74
2021/12/19 10:49:55;;;;;;;15.82;14.10;;;8.10;99.90;;;;;;4987632;28;20710;-73
2021/12/19 10:52:35;;;;;;;16.50;14.30;;;8.20;99.90;;;;;;4976692;28;21046;-73
2021/12/19 10:55:07;;;;;;;25.55;21.52;;;8.20;99.90;;;;;;4993474;28;20293;-73
2021/12/19 10:57:38;;;;;;;20.25;17.00;;;8.20;99.90;;;;;;4998452;28;20209;-75
2021/12/19 11:00:08;;;;;;;16.75;13.75;;;8.30;99.90;;;;;;4995545;28;20240;-73
2021/12/19 11:02:38;;;;;;;15.10;13.32;;;8.30;99.90;;;;;;4994617;28;20285;-73
2021/12/19 11:05:07;;;;;;;16.10;13.80;;;8.20;99.90;;;;;;4986296;28;20274;-70
2021/12/19 11:07:36;;;;;;;13.82;12.23;;;8.10;99.90;;;;;;4977054;28;20623;-73
2021/12/19 11:10:26;;;;;;;14.00;12.60;;;8.00;99.90;;;;;;4986793;28;21082;-73
2021/12/19 11:13:06;;;;;;;16.80;15.00;;;8.10;99.90;;;;;;4989464;28;20457;-73
2021/12/19 11:15:34;;;;;;;15.75;12.75;;;8.20;99.90;;;;;;5003032;28;20312;-74
2021/12/19 11:18:02;;;;;;;16.98;13.15;;;8.20;99.90;;;;;;5000932;28;20288;-73
2021/12/19 11:20:31;;;;;;;13.57;12.15;;;8.30;99.90;;;;;;5006388;28;20201;-73
2021/12/19 11:23:00;;;;;;;16.00;13.38;;;8.40;99.90;;;;;;4997892;28;20206;-73
2021/12/19 11:25:28;;;;;;;15.68;13.57;;;8.40;99.90;;;;;;4999706;28;20209;-73
2021/12/19 11:27:56;;;;;;;16.35;14.57;;;8.30;99.90;;;;;;4993358;28;20258;-73
2021/12/19 11:30:26;;;;;;;16.13;14.00;;;8.40;99.90;;;;;;4989703;28;20225;-73
2021/12/19 11:33:05;;;;;;;14.50;12.57;;;8.30;99.90;;;;;;4996128;28;20308;-73
2021/12/19 11:35:37;;;;;;;17.30;12.73;;;8.20;99.90;;;;;;4979627;28;20206;-71
2021/12/19 11:38:10;;;;;;;15.57;13.85;;;8.20;99.90;;;;;;5002970;28;20603;-70
2021/12/19 11:40:43;;;;;;;15.07;13.23;;;8.30;99.90;;;;;;4969801;28;20205;-70
2021/12/19 11:43:12;;;;;;;18.23;15.63;;;8.40;99.90;;;;;;4985494;28;20734;-72
2021/12/19 11:45:46;;;;;;;14.23;12.75;;;8.40;99.90;;;;;;5000972;28;20205;-71
2021/12/19 11:48:19;;;;;;;16.15;13.45;;;8.30;99.90;;;;;;4994895;28;20284;-70
2021/12/19 11:50:48;;;;;;;17.52;14.80;;;8.30;99.90;;;;;;4989843;28;20253;-70
2021/12/19 11:53:29;;;;;;;15.50;13.70;;;8.30;99.90;;;;;;4989730;28;20324;-71
2021/12/19 11:56:06;;;;;;;14.90;13.18;;;8.20;99.90;;;;;;4986134;28;20210;-71
2021/12/19 11:58:42;;;;;;;17.08;14.23;;;8.20;99.90;;;;;;4990705;28;20208;-70
2021/12/19 12:01:13;;;;;;;18.80;13.30;;;8.00;99.90;;;;;;4990677;28;20728;-71
2021/12/19 12:03:47;;;;;;;14.70;13.10;;;8.00;99.90;;;;;;4996475;28;20225;-71
2021/12/19 12:06:33;;;;;;;14.00;12.48;;;7.90;99.90;;;;;;4997732;28;20302;-71
2021/12/19 12:09:23;;;;;;;16.35;13.60;;;7.90;99.90;;;;;;4984212;28;20225;-72
2021/12/19 12:12:23;;;;;;;14.68;12.45;;;7.90;99.90;;;;;;4990437;28;20257;-72
2021/12/19 12:15:09;;;;;;;14.65;13.02;;;7.90;99.90;;;;;;4986603;28;20224;-72
2021/12/19 12:17:50;;;;;;;14.25;12.75;;;7.90;99.90;;;;;;4973101;28;20205;-71
2021/12/19 12:20:26;;;;;;;15.63;12.93;;;7.80;99.90;;;;;;4990429;28;20990;-71
2021/12/19 12:22:59;;;;;;;15.80;13.07;;;7.80;99.90;;;;;;4989130;28;20217;-71
2021/12/19 12:25:41;;;;;;;15.82;13.68;;;7.80;99.90;;;;;;4991466;28;20214;-73
2021/12/19 12:28:16;;;;;;;14.73;13.13;;;7.90;99.90;;;;;;4995697;28;20209;-72
2021/12/19 12:30:46;;;;;;;13.98;12.48;;;7.80;99.90;;;;;;4989587;28;20277;-71
2021/12/19 12:33:17;;;;;;;13.95;12.48;;;7.70;99.90;;;;;;4995842;28;20642;-72
2021/12/19 12:35:47;;;;;;;15.05;12.55;;;7.70;99.90;;;;;;4997761;28;20553;-72
2021/12/19 12:38:15;;;;;;;14.80;12.63;;;7.70;99.90;;;;;;4989501;28;20205;-72
2021/12/19 12:40:54;;;;;;;15.35;12.25;;;7.60;99.90;;;;;;4989418;28;20552;-70
2021/12/19 12:43:23;;;;;;;14.35;12.65;;;7.60;99.90;;;;;;4997290;28;20327;-71
2021/12/19 12:46:07;;;;;;;15.43;13.63;;;7.60;99.90;;;;;;4995423;28;20306;-72
2021/12/19 12:49:01;;;;;;;13.80;11.70;;;7.60;99.90;;;;;;4985662;28;20748;-72
2021/12/19 12:54:44;;;;;;;15.23;12.68;;;7.70;99.90;;;;;;4928670;23;20275;-65
2021/12/19 12:57:18;;;;;;;14.20;12.10;;;7.70;99.90;;;;;;4930609;28;20250;-63
2021/12/19 12:59:46;;;;;;;14.75;13.23;;;7.70;99.90;;;;;;4940991;29;20247;-65
2021/12/19 13:02:20;;;;;;;16.77;14.35;;;7.60;99.90;;;;;;4911680;29;20338;-63
2021/12/19 13:04:49;;;;;;;15.70;13.90;;;7.60;99.90;;;;;;4899683;29;20332;-65
2021/12/19 13:10:09;;;;;;;17.50;14.20;;;7.50;99.90;;;;;;4916331;29;20288;-64
2021/12/19 13:12:41;;;;;;;14.90;12.55;;;7.40;99.90;;;;;;4917548;29;21047;-65
2021/12/19 13:15:11;;;;;;;15.55;13.27;;;7.40;99.90;;;;;;4915624;29;20238;-65
2021/12/19 13:17:41;;;;;;;17.58;14.63;;;7.40;99.90;;;;;;4920390;29;20239;-65
2021/12/19 13:20:10;;;;;;;16.58;14.38;;;7.30;99.90;;;;;;4911308;29;20238;-65
2021/12/19 13:22:43;;;;;;;18.50;15.95;;;7.30;99.90;;;;;;4903186;29;20268;-65
2021/12/19 13:25:13;;;;;;;15.85;13.65;;;7.30;99.90;;;;;;4893073;29;20751;-65
2021/12/19 13:27:45;;;;;;;15.45;13.77;;;7.30;99.90;;;;;;4892481;29;20783;-65
2021/12/19 13:30:17;;;;;;;15.25;13.65;;;7.30;99.90;;;;;;4892493;29;20291;-64
2021/12/19 13:32:47;;;;;;;15.43;13.32;;;7.30;99.90;;;;;;4888372;29;20237;-66
2021/12/19 13:35:25;;;;;;;15.40;13.10;;;7.40;99.90;;;;;;4894050;29;20301;-64
2021/12/19 13:38:00;;;;;;;14.80;13.25;;;7.30;99.90;;;;;;4900423;29;20348;-65
2021/12/19 13:40:30;;;;;;;16.45;14.65;;;7.40;99.90;;;;;;4911226;29;20263;-66
2021/12/19 13:43:01;;;;;;;14.35;12.93;;;7.20;99.90;;;;;;4902433;29;20258;-68
2021/12/19 13:45:41;;;;;;;13.43;12.07;;;7.20;99.90;;;;;;4874167;29;20637;-67
2021/12/19 13:48:26;;;;;;;17.63;13.75;;;7.30;99.90;;;;;;4893779;29;20232;-67
2021/12/19 13:51:01;;;;;;;13.80;11.60;;;7.30;99.90;;;;;;4887786;29;20260;-65
2021/12/19 13:53:36;;;;;;;15.57;12.82;;;7.40;99.90;;;;;;4888996;29;20213;-66
2021/12/19 13:56:07;;;;;;;11.85;10.60;;;7.40;99.90;;;;;;4889242;29;20229;-65
2021/12/19 13:58:39;;;;;;;10.98;9.95;;;7.40;99.90;;;;;;4902798;29;20777;-66
2021/12/19 14:01:13;;;;;;;8.80;8.02;;;7.30;99.90;;;;;;4894516;29;21023;-65
2021/12/19 14:03:44;;;;;;;9.13;8.23;;;7.30;99.90;;;;;;4887777;29;20299;-65